createdAt,value
2023-02-11T00:00:13.097Z,4.30
2023-02-11T00:02:39.673Z,4.30
2023-02-11T00:05:06.375Z,4.30
2023-02-11T00:07:33.737Z,4.30
2023-02-11T00:10:00.484Z,4.20
2023-02-11T00:12:27.107Z,4.20
2023-02-11T00:14:53.644Z,4.30
2023-02-11T00:17:20.298Z,4.30
2023-02-11T00:19:50.491Z,4.30
2023-02-11T00:22:17.115Z,4.30
2023-02-11T00:24:43.752Z,4.30
2023-02-11T00:27:10.306Z,4.30
2023-02-11T00:29:37.258Z,4.30
2023-02-11T00:32:05.224Z,4.20
2023-02-11T00:34:32.673Z,4.20
2023-02-11T00:36:59.450Z,4.10
2023-02-11T00:39:26.034Z,4.20
2023-02-11T00:41:52.597Z,4.30
2023-02-11T00:44:19.144Z,4.30
2023-02-11T00:46:45.804Z,4.30
2023-02-11T00:49:12.424Z,4.30
2023-02-11T00:51:39.008Z,4.20
2023-02-11T00:54:05.703Z,4.10
2023-02-11T00:56:32.212Z,4.00
2023-02-11T00:58:58.852Z,3.90
2023-02-11T01:01:25.716Z,3.90
2023-02-11T01:03:52.386Z,3.90
2023-02-11T01:06:18.957Z,3.90
2023-02-11T01:08:45.807Z,4.00
2023-02-11T01:11:16.743Z,3.90
2023-02-11T01:13:43.799Z,3.90
2023-02-11T01:16:11.161Z,3.80
2023-02-11T01:18:37.815Z,3.70
2023-02-11T01:21:04.901Z,3.70
2023-02-11T01:23:31.484Z,3.80
2023-02-11T01:25:58.066Z,3.80
2023-02-11T01:28:26.191Z,3.70
2023-02-11T01:30:53.486Z,3.70
2023-02-11T01:33:20.768Z,3.80
2023-02-11T01:35:47.502Z,3.70
2023-02-11T01:38:15.390Z,3.70
2023-02-11T01:40:46.428Z,3.60
2023-02-11T01:43:13.031Z,3.60
2023-02-11T01:45:49.345Z,3.40
2023-02-11T01:48:19.961Z,3.40
2023-02-11T01:50:47.256Z,3.30
2023-02-11T01:53:33.469Z,3.30
2023-02-11T01:56:18.974Z,3.20
2023-02-11T01:58:47.115Z,3.20
2023-02-11T02:01:15.825Z,3.10
2023-02-11T02:03:45.903Z,3.10
2023-02-11T02:06:16.345Z,3.10
2023-02-11T02:08:45.327Z,3.10
2023-02-11T02:11:11.958Z,3.00
2023-02-11T02:13:38.550Z,3.00
2023-02-11T02:16:09.235Z,3.00
2023-02-11T02:18:51.517Z,3.00
2023-02-11T02:21:20.984Z,2.90
2023-02-11T02:24:04.172Z,2.90
2023-02-11T02:26:33.682Z,2.90
2023-02-11T02:29:18.988Z,2.90
2023-02-11T02:32:03.479Z,3.00
2023-02-11T02:34:30.377Z,2.90
2023-02-11T02:37:07.784Z,2.90
2023-02-11T02:39:35.609Z,3.00
2023-02-11T02:42:02.542Z,3.00
2023-02-11T02:44:29.696Z,3.10
2023-02-11T02:46:56.363Z,3.10
2023-02-11T02:49:23.031Z,3.10
2023-02-11T02:51:49.623Z,3.10
2023-02-11T02:54:18.964Z,3.10
2023-02-11T02:57:06.398Z,3.10
2023-02-11T02:59:38.769Z,3.00
2023-02-11T03:02:25.590Z,2.90
2023-02-11T03:07:27.802Z,2.90
2023-02-11T03:09:57.151Z,2.90
2023-02-11T03:12:24.514Z,2.90
2023-02-11T03:14:51.684Z,2.90
2023-02-11T03:17:18.844Z,2.80
2023-02-11T03:19:46.607Z,2.70
2023-02-11T03:22:17.103Z,2.60
2023-02-11T03:24:44.747Z,2.50
2023-02-11T03:27:17.493Z,2.50
2023-02-11T03:29:51.456Z,2.50
2023-02-11T03:32:28.705Z,2.50
2023-02-11T03:35:02.608Z,2.50
2023-02-11T03:37:40.980Z,2.40
2023-02-11T03:40:12.344Z,2.30
2023-02-11T03:42:41.731Z,2.20
2023-02-11T03:45:10.592Z,2.20
2023-02-11T03:47:38.587Z,2.20
2023-02-11T03:50:06.530Z,2.20
2023-02-11T03:52:34.014Z,2.10
2023-02-11T03:55:01.845Z,2.20
2023-02-11T03:57:28.460Z,2.30
2023-02-11T03:59:59.265Z,2.40
2023-02-11T04:02:34.658Z,2.40
2023-02-11T04:07:31.567Z,2.30
2023-02-11T04:09:58.146Z,2.30
2023-02-11T04:12:24.650Z,2.30
2023-02-11T04:14:51.158Z,2.30
2023-02-11T04:17:17.679Z,2.30
2023-02-11T04:19:44.268Z,2.40
2023-02-11T04:22:10.887Z,2.30
2023-02-11T04:24:37.487Z,2.30
2023-02-11T04:27:04.056Z,2.20
2023-02-11T04:29:30.724Z,2.20
2023-02-11T04:31:57.438Z,2.20
2023-02-11T04:34:24.461Z,2.10
2023-02-11T04:36:51.072Z,2.10
2023-02-11T04:39:17.755Z,2.00
2023-02-11T04:41:44.313Z,2.00
2023-02-11T04:44:10.958Z,1.90
2023-02-11T04:46:37.582Z,2.00
2023-02-11T04:49:04.241Z,2.10
2023-02-11T04:51:31.050Z,2.20
2023-02-11T04:53:57.690Z,2.20
2023-02-11T04:56:24.211Z,2.20
2023-02-11T04:58:50.774Z,2.10
2023-02-11T05:01:17.492Z,2.10
2023-02-11T05:03:44.081Z,2.10
2023-02-11T05:06:11.395Z,2.10
2023-02-11T05:08:37.981Z,2.20
2023-02-11T05:11:04.589Z,2.30
2023-02-11T05:13:31.494Z,2.30
2023-02-11T05:15:58.078Z,2.40
2023-02-11T05:18:24.606Z,2.40
2023-02-11T05:20:51.144Z,2.40
2023-02-11T05:23:17.729Z,2.40
2023-02-11T05:25:44.253Z,2.50
2023-02-11T05:28:10.783Z,2.50
2023-02-11T05:30:37.303Z,2.50
2023-02-11T05:33:03.892Z,2.50
2023-02-11T05:35:30.519Z,2.60
2023-02-11T05:37:57.046Z,2.70
2023-02-11T05:40:23.613Z,2.70
2023-02-11T05:42:50.189Z,2.70
2023-02-11T05:45:16.733Z,2.80
2023-02-11T05:47:43.265Z,2.90
2023-02-11T05:50:09.762Z,2.90
2023-02-11T05:52:36.310Z,3.00
2023-02-11T05:55:03.079Z,3.10
2023-02-11T05:57:29.758Z,3.10
2023-02-11T05:59:56.379Z,3.10
2023-02-11T06:02:22.985Z,3.10
2023-02-11T06:04:49.560Z,3.10
2023-02-11T06:07:17.363Z,3.10
2023-02-11T06:09:43.926Z,3.10
2023-02-11T06:12:10.509Z,3.20
2023-02-11T06:14:37.040Z,3.30
2023-02-11T06:17:03.741Z,3.30
2023-02-11T06:19:31.124Z,3.30
2023-02-11T06:21:57.684Z,3.30
2023-02-11T06:24:44.377Z,3.30
2023-02-11T06:27:10.645Z,3.30
2023-02-11T06:29:37.155Z,3.40
2023-02-11T06:32:04.329Z,3.40
2023-02-11T06:34:31.061Z,3.50
2023-02-11T06:36:57.720Z,3.50
2023-02-11T06:39:24.249Z,3.50
2023-02-11T06:41:50.773Z,3.50
2023-02-11T06:44:17.301Z,3.60
2023-02-11T06:46:43.921Z,3.60
2023-02-11T06:49:10.600Z,3.60
2023-02-11T06:51:37.126Z,3.60
2023-02-11T06:54:04.748Z,3.70
2023-02-11T06:56:31.284Z,3.70
2023-02-11T06:58:57.913Z,3.70
2023-02-11T07:01:24.969Z,3.80
2023-02-11T07:03:51.590Z,3.90
2023-02-11T07:06:20.672Z,3.90
2023-02-11T07:08:47.655Z,3.90
2023-02-11T07:11:19.527Z,3.90
2023-02-11T07:13:46.557Z,3.90
2023-02-11T07:16:14.443Z,4.00
2023-02-11T07:18:41.433Z,4.00
2023-02-11T07:21:08.682Z,4.10
2023-02-11T07:23:35.783Z,4.10
2023-02-11T07:26:04.111Z,4.10
2023-02-11T07:28:31.096Z,4.10
2023-02-11T07:30:57.732Z,4.10
2023-02-11T07:33:24.293Z,4.00
2023-02-11T07:35:51.149Z,4.00
2023-02-11T07:38:18.028Z,4.00
2023-02-11T07:40:44.564Z,4.00
2023-02-11T07:43:11.060Z,4.00
2023-02-11T07:45:38.540Z,4.00
2023-02-11T07:48:05.189Z,4.00
2023-02-11T07:50:31.726Z,4.00
2023-02-11T07:53:06.036Z,4.00
2023-02-11T07:55:33.251Z,4.00
2023-02-11T07:57:59.900Z,4.00
2023-02-11T08:00:26.439Z,4.00
2023-02-11T08:02:52.992Z,4.10
2023-02-11T08:05:19.471Z,4.10
2023-02-11T08:07:46.020Z,4.10
2023-02-11T08:10:12.624Z,4.10
2023-02-11T08:12:39.140Z,4.10
2023-02-11T08:15:05.759Z,4.10
2023-02-11T08:17:32.320Z,4.10
2023-02-11T08:19:58.843Z,4.20
2023-02-11T08:22:25.349Z,4.20
2023-02-11T08:24:52.534Z,4.20
2023-02-11T08:27:19.105Z,4.30
2023-02-11T08:29:45.613Z,4.30
2023-02-11T08:32:12.171Z,4.30
2023-02-11T08:34:38.707Z,4.30
2023-02-11T08:37:05.292Z,4.30
2023-02-11T08:39:31.859Z,4.40
2023-02-11T08:41:58.469Z,4.40
2023-02-11T08:44:25.044Z,4.40
2023-02-11T08:46:51.895Z,4.40
2023-02-11T08:49:18.789Z,4.40
2023-02-11T08:51:45.904Z,4.40
2023-02-11T08:54:12.956Z,4.50
2023-02-11T08:56:39.529Z,4.50
2023-02-11T08:59:06.150Z,4.50
2023-02-11T09:01:33.387Z,4.50
2023-02-11T09:04:00.049Z,4.50
2023-02-11T09:06:27.397Z,4.50
2023-02-11T09:08:55.687Z,4.50
2023-02-11T09:11:25.152Z,4.60
2023-02-11T09:13:54.267Z,4.60
2023-02-11T09:16:23.251Z,4.60
2023-02-11T09:18:49.990Z,4.70
2023-02-11T09:21:17.162Z,4.70
2023-02-11T09:23:44.730Z,4.70
2023-02-11T09:26:16.427Z,4.80
2023-02-11T09:28:43.013Z,4.80
2023-02-11T09:31:11.038Z,4.80
2023-02-11T09:33:38.113Z,4.90
2023-02-11T09:36:05.463Z,5.00
2023-02-11T09:38:32.584Z,4.90
2023-02-11T09:40:59.166Z,5.00
2023-02-11T09:43:36.217Z,5.00
2023-02-11T09:46:04.351Z,5.00
2023-02-11T09:48:38.222Z,5.10
2023-02-11T09:51:05.782Z,5.20
2023-02-11T09:53:36.266Z,5.20
2023-02-11T09:56:05.202Z,5.20
2023-02-11T09:58:33.247Z,5.20
2023-02-11T10:01:14.080Z,5.30
2023-02-11T10:03:52.567Z,5.20
2023-02-11T10:06:25.536Z,5.30
2023-02-11T10:08:52.067Z,5.30
2023-02-11T10:11:41.636Z,5.40
2023-02-11T10:14:17.076Z,5.50
2023-02-11T10:17:02.195Z,5.40
2023-02-11T10:19:45.737Z,5.40
2023-02-11T10:22:16.951Z,5.40
2023-02-11T10:24:48.609Z,5.50
2023-02-11T10:27:17.585Z,5.50
2023-02-11T10:29:48.133Z,5.60
2023-02-11T10:32:27.217Z,5.60
2023-02-11T10:34:55.915Z,5.60
2023-02-11T10:37:22.560Z,5.60
2023-02-11T10:39:49.087Z,5.70
2023-02-11T10:42:15.779Z,5.80
2023-02-11T10:44:54.878Z,5.80
2023-02-11T10:47:22.718Z,5.90
2023-02-11T10:49:49.277Z,6.00
2023-02-11T10:52:26.459Z,6.10
2023-02-11T10:55:11.999Z,6.10
2023-02-11T10:57:58.907Z,6.10
2023-02-11T11:00:32.331Z,6.20
2023-02-11T11:03:02.817Z,6.30
2023-02-11T11:05:37.178Z,6.30
2023-02-11T11:08:07.164Z,6.30
2023-02-11T11:10:44.357Z,6.20
2023-02-11T11:13:23.179Z,6.20
2023-02-11T11:16:06.390Z,6.20
2023-02-11T11:18:33.025Z,6.20
2023-02-11T11:21:00.836Z,6.20
2023-02-11T11:23:28.217Z,6.30
2023-02-11T11:26:00.939Z,6.20
2023-02-11T11:28:29.028Z,6.30
2023-02-11T11:30:56.765Z,6.30
2023-02-11T11:33:25.949Z,6.40
2023-02-11T11:35:58.802Z,6.30
2023-02-11T11:38:25.715Z,6.30
2023-02-11T11:41:11.122Z,6.30
2023-02-11T11:43:37.762Z,6.30
2023-02-11T11:46:06.213Z,6.40
2023-02-11T11:48:37.094Z,6.40
2023-02-11T11:51:09.851Z,6.40
2023-02-11T11:53:43.519Z,6.50
2023-02-11T11:56:14.903Z,6.50
2023-02-11T11:58:41.467Z,6.60
2023-02-11T12:01:10.948Z,6.50
2023-02-11T12:03:37.425Z,6.60
2023-02-11T12:06:19.169Z,6.60
2023-02-11T12:08:55.912Z,6.80
2023-02-11T12:11:34.705Z,6.80
2023-02-11T12:14:04.297Z,6.90
2023-02-11T12:16:55.138Z,7.00
2023-02-11T12:19:54.831Z,7.00
2023-02-11T12:22:31.034Z,7.10
2023-02-11T12:24:57.630Z,7.30
2023-02-11T12:27:35.989Z,7.40
2023-02-11T12:30:02.528Z,7.40
2023-02-11T12:32:37.769Z,7.40
2023-02-11T12:35:13.340Z,7.60
2023-02-11T12:37:58.840Z,7.40
2023-02-11T12:40:39.530Z,7.40
2023-02-11T12:43:18.332Z,7.30
2023-02-11T12:46:00.741Z,7.30
2023-02-11T12:48:30.298Z,7.20
2023-02-11T12:51:00.085Z,7.20
2023-02-11T12:53:35.587Z,7.30
2023-02-11T12:56:05.641Z,7.20
2023-02-11T12:58:44.434Z,7.30
2023-02-11T13:01:18.386Z,7.30
2023-02-11T13:03:47.276Z,7.40
2023-02-11T13:06:20.374Z,7.40
2023-02-11T13:09:04.314Z,7.40
2023-02-11T13:11:51.990Z,7.60
2023-02-11T13:14:27.098Z,7.50
2023-02-11T13:16:54.418Z,7.50
2023-02-11T13:19:33.233Z,7.40
2023-02-11T13:22:02.847Z,7.50
2023-02-11T13:24:36.752Z,7.50
2023-02-11T13:27:23.577Z,7.40
2023-02-11T13:29:53.392Z,7.40
2023-02-11T13:32:19.993Z,7.40
2023-02-11T13:34:46.545Z,7.30
2023-02-11T13:37:23.632Z,7.30
2023-02-11T13:39:57.433Z,7.30
2023-02-11T13:42:24.071Z,7.30
2023-02-11T13:44:50.757Z,7.30
2023-02-11T13:47:29.881Z,7.30
2023-02-11T13:49:57.484Z,7.30
2023-02-11T13:52:26.884Z,7.40
2023-02-11T13:54:54.626Z,7.40
2023-02-11T13:57:21.189Z,7.40
2023-02-11T13:59:49.226Z,7.40
2023-02-11T14:02:37.591Z,7.30
2023-02-11T14:05:22.652Z,7.40
2023-02-11T14:08:23.008Z,7.30
2023-02-11T14:10:50.562Z,7.40
2023-02-11T14:13:23.540Z,7.30
2023-02-11T14:16:02.924Z,7.20
2023-02-11T14:18:38.458Z,7.30
2023-02-11T14:21:15.704Z,7.40
2023-02-11T14:23:42.372Z,7.40
2023-02-11T14:26:20.129Z,7.50
2023-02-11T14:28:58.971Z,7.50
2023-02-11T14:31:27.471Z,7.70
2023-02-11T14:34:12.909Z,7.70
2023-02-11T14:36:57.547Z,7.70
2023-02-11T14:39:26.951Z,7.80
2023-02-11T14:41:53.909Z,7.70
2023-02-11T14:44:22.779Z,7.80
2023-02-11T14:46:50.580Z,7.80
2023-02-11T14:49:24.983Z,7.80
2023-02-11T14:51:52.476Z,7.90
2023-02-11T14:54:22.728Z,7.80
2023-02-11T14:57:13.064Z,7.90
2023-02-11T14:59:40.093Z,7.90
2023-02-11T15:02:23.711Z,7.90
2023-02-11T15:04:50.279Z,7.90
2023-02-11T15:07:17.356Z,7.90
2023-02-11T15:09:49.541Z,7.90
2023-02-11T15:12:20.216Z,7.90
2023-02-11T15:14:48.397Z,7.90
2023-02-11T15:17:16.966Z,8.00
2023-02-11T15:19:48.240Z,8.00
2023-02-11T15:22:21.823Z,8.10
2023-02-11T15:25:01.456Z,7.90
2023-02-11T15:27:28.174Z,7.90
2023-02-11T15:29:54.693Z,8.00
2023-02-11T15:32:22.739Z,7.90
2023-02-11T15:34:50.399Z,8.00
2023-02-11T15:37:20.180Z,8.00
2023-02-11T15:39:46.820Z,8.00
2023-02-11T15:42:20.707Z,8.00
2023-02-11T15:44:52.260Z,7.90
2023-02-11T15:47:22.937Z,8.00
2023-02-11T15:49:49.552Z,8.00
2023-02-11T15:52:23.305Z,8.00
2023-02-11T15:54:49.921Z,8.00
2023-02-11T15:57:17.830Z,8.00
2023-02-11T15:59:48.307Z,8.00
2023-02-11T16:02:23.542Z,8.00
2023-02-11T16:04:51.839Z,8.00
2023-02-11T16:07:37.090Z,7.90
2023-02-11T16:10:03.959Z,7.90
2023-02-11T16:12:30.485Z,7.80
2023-02-11T16:14:59.673Z,7.80
2023-02-11T16:17:27.760Z,7.70
2023-02-11T16:19:54.760Z,7.70
2023-02-11T16:22:26.090Z,7.60
2023-02-11T16:24:54.035Z,7.60
2023-02-11T16:27:22.719Z,7.50
2023-02-11T16:29:50.368Z,7.50
2023-02-11T16:32:21.347Z,7.50
2023-02-11T16:34:48.307Z,7.50
2023-02-11T16:37:21.565Z,7.50
2023-02-11T16:39:48.089Z,7.40
2023-02-11T16:42:14.868Z,7.30
2023-02-11T16:44:41.445Z,7.30
2023-02-11T16:47:14.866Z,7.20
2023-02-11T16:49:42.123Z,7.20
2023-02-11T16:52:13.725Z,7.20
2023-02-11T16:54:40.358Z,7.20
2023-02-11T16:57:17.281Z,7.20
2023-02-11T16:59:44.063Z,7.20
2023-02-11T17:02:14.180Z,7.20
2023-02-11T17:04:41.229Z,7.20
2023-02-11T17:07:07.812Z,7.20
2023-02-11T17:09:34.509Z,7.20
2023-02-11T17:12:01.349Z,7.20
2023-02-11T17:14:27.971Z,7.30
2023-02-11T17:16:54.551Z,7.30
2023-02-11T17:19:21.765Z,7.30
2023-02-11T17:21:49.327Z,7.30
2023-02-11T17:24:16.032Z,7.30
2023-02-11T17:26:43.363Z,7.40
2023-02-11T17:29:12.076Z,7.40
2023-02-11T17:31:39.640Z,7.40
2023-02-11T17:34:06.383Z,7.40
2023-02-11T17:36:33.281Z,7.40
2023-02-11T17:39:00.523Z,7.30
2023-02-11T17:41:27.902Z,7.30
2023-02-11T17:43:57.267Z,7.20
2023-02-11T17:46:24.099Z,7.30
2023-02-11T17:48:51.620Z,7.30
2023-02-11T17:51:26.023Z,7.40
2023-02-11T17:53:53.165Z,7.40
2023-02-11T17:56:20.093Z,7.40
2023-02-11T17:58:46.774Z,7.30
2023-02-11T18:01:13.447Z,7.40
2023-02-11T18:03:40.040Z,7.40
2023-02-11T18:06:07.135Z,7.40
2023-02-11T18:08:34.281Z,7.30
2023-02-11T18:11:02.075Z,7.30
2023-02-11T18:13:28.726Z,7.20
2023-02-11T18:15:55.505Z,7.10
2023-02-11T18:18:22.143Z,7.10
2023-02-11T18:20:58.531Z,7.20
2023-02-11T18:23:25.692Z,7.20
2023-02-11T18:25:52.502Z,7.20
2023-02-11T18:28:19.511Z,7.20
2023-02-11T18:30:46.203Z,7.10
2023-02-11T18:33:14.252Z,7.10
2023-02-11T18:35:41.421Z,7.30
2023-02-11T18:38:08.307Z,7.30
2023-02-11T18:40:36.448Z,7.30
2023-02-11T18:43:03.064Z,7.40
2023-02-11T18:45:31.285Z,7.30
2023-02-11T18:48:01.448Z,7.30
2023-02-11T18:50:28.021Z,7.30
2023-02-11T18:52:54.473Z,7.30
2023-02-11T18:55:25.304Z,7.20
2023-02-11T18:57:52.839Z,7.20
2023-02-11T19:00:20.049Z,7.20
2023-02-11T19:02:46.605Z,7.20
2023-02-11T19:05:13.154Z,7.20
2023-02-11T19:07:39.768Z,7.20
2023-02-11T19:10:06.735Z,7.10
2023-02-11T19:12:33.302Z,7.10
2023-02-11T19:15:00.792Z,7.10
2023-02-11T19:17:27.553Z,7.00
2023-02-11T19:19:54.084Z,7.00
2023-02-11T19:22:20.765Z,6.90
2023-02-11T19:24:47.410Z,6.80
2023-02-11T19:27:14.007Z,6.80
2023-02-11T19:29:40.794Z,6.80
2023-02-11T19:32:07.648Z,6.80
2023-02-11T19:34:41.160Z,6.60
2023-02-11T19:37:08.577Z,6.50
2023-02-11T19:39:35.190Z,6.40
2023-02-11T19:42:01.755Z,6.30
2023-02-11T19:44:28.368Z,6.30
2023-02-11T19:46:55.009Z,6.20
2023-02-11T19:49:26.196Z,6.00
2023-02-11T19:51:53.917Z,5.90
2023-02-11T19:54:20.987Z,5.90
2023-02-11T19:56:48.672Z,5.80
2023-02-11T19:59:15.990Z,5.80
2023-02-11T20:01:42.568Z,5.80
2023-02-11T20:04:09.316Z,5.70
2023-02-11T20:06:35.922Z,5.70
2023-02-11T20:09:12.841Z,5.70
2023-02-11T20:11:39.838Z,5.80
2023-02-11T20:14:10.546Z,5.80
2023-02-11T20:16:48.074Z,5.90
2023-02-11T20:19:21.248Z,5.90
2023-02-11T20:21:48.583Z,5.90
2023-02-11T20:24:16.270Z,5.90
2023-02-11T20:26:42.986Z,6.00
2023-02-11T20:29:09.545Z,6.00
2023-02-11T20:31:36.492Z,6.10
2023-02-11T20:34:03.223Z,6.10
2023-02-11T20:36:31.957Z,6.10
2023-02-11T20:38:59.679Z,6.00
2023-02-11T20:41:28.447Z,6.00
2023-02-11T20:43:55.563Z,6.00
2023-02-11T20:46:23.475Z,6.10
2023-02-11T20:48:50.299Z,6.10
2023-02-11T20:51:24.521Z,6.10
2023-02-11T20:53:51.976Z,6.10
2023-02-11T20:56:19.851Z,6.10
2023-02-11T20:58:46.466Z,6.20
2023-02-11T21:01:23.738Z,6.20
2023-02-11T21:03:51.619Z,6.10
2023-02-11T21:06:18.740Z,6.10
2023-02-11T21:08:45.328Z,6.20
2023-02-11T21:11:12.142Z,6.30
2023-02-11T21:13:40.147Z,6.30
2023-02-11T21:16:07.304Z,6.30
2023-02-11T21:18:34.234Z,6.20
2023-02-11T21:21:01.027Z,6.30
2023-02-11T21:23:29.010Z,6.30
2023-02-11T21:25:56.454Z,6.30
2023-02-11T21:28:26.296Z,6.30
2023-02-11T21:30:53.902Z,6.40
2023-02-11T21:33:20.933Z,6.40
2023-02-11T21:35:47.758Z,6.30
2023-02-11T21:40:44.677Z,6.30
2023-02-11T21:43:11.245Z,6.30
2023-02-11T21:45:42.060Z,6.20
2023-02-11T21:48:08.583Z,6.20
2023-02-11T21:50:37.948Z,6.10
2023-02-11T21:53:06.920Z,5.90
2023-02-11T21:55:33.778Z,5.80
2023-02-11T21:58:00.339Z,5.80
2023-02-11T22:00:27.007Z,5.70
2023-02-11T22:02:53.636Z,5.70
2023-02-11T22:05:20.785Z,5.60
2023-02-11T22:07:47.515Z,5.60
2023-02-11T22:10:14.108Z,5.60
2023-02-11T22:12:40.987Z,5.60
2023-02-11T22:15:07.918Z,5.60
2023-02-11T22:17:34.846Z,5.60
2023-02-11T22:20:01.491Z,5.60
2023-02-11T22:22:29.077Z,5.70
2023-02-11T22:24:55.815Z,5.70
2023-02-11T22:27:22.344Z,5.70
2023-02-11T22:29:48.968Z,5.80
2023-02-11T22:32:17.716Z,5.80
2023-02-11T22:34:44.519Z,5.80
2023-02-11T22:37:11.126Z,5.80
2023-02-11T22:39:37.641Z,5.80
2023-02-11T22:42:04.297Z,5.80
2023-02-11T22:44:30.858Z,5.80
2023-02-11T22:46:57.462Z,5.80
2023-02-11T22:49:24.123Z,5.80
2023-02-11T22:51:50.700Z,5.90
2023-02-11T22:54:18.148Z,5.90
2023-02-11T22:56:45.351Z,5.80
2023-02-11T22:59:13.033Z,5.90
2023-02-11T23:01:40.243Z,5.90
2023-02-11T23:04:07.565Z,5.80
2023-02-11T23:06:34.646Z,5.80
2023-02-11T23:09:02.513Z,5.80
2023-02-11T23:11:30.418Z,5.80
2023-02-11T23:13:57.063Z,5.80
2023-02-11T23:16:25.378Z,5.80
2023-02-11T23:18:52.247Z,5.70
2023-02-11T23:21:21.029Z,5.80
2023-02-11T23:23:48.378Z,5.80
2023-02-11T23:26:16.200Z,5.90
2023-02-11T23:28:45.854Z,5.90
2023-02-11T23:31:13.397Z,5.80
2023-02-11T23:33:40.000Z,5.80
2023-02-11T23:36:06.729Z,5.80
2023-02-11T23:41:08.594Z,5.90
2023-02-11T23:43:35.163Z,6.00
2023-02-11T23:46:01.795Z,6.00
2023-02-11T23:48:28.471Z,6.00
2023-02-11T23:50:55.058Z,6.00
2023-02-11T23:53:21.678Z,5.90
2023-02-11T23:55:48.377Z,5.90
2023-02-11T23:58:15.325Z,5.90
